sensor_id;sensor_type;location;lat;lon;timestamp;pressure;altitude;pressure_sealevel;temperature;humidity
50672;BME280;46021;55.882;37.654;2023-04-02T00:02:30;98902.69;;;4.85;82.07
50672;BME280;46021;55.882;37.654;2023-04-02T00:07:46;98901.13;;;4.78;82.21
50672;BME280;46021;55.882;37.654;2023-04-02T00:10:25;98895.13;;;4.77;83.15
50672;BME280;46021;55.882;37.654;2023-04-02T00:13:02;98898.50;;;4.79;83.72
50672;BME280;46021;55.882;37.654;2023-04-02T00:15:31;98896.84;;;4.77;84.85
50672;BME280;46021;55.882;37.654;2023-04-02T00:17:59;98900.25;;;4.79;85.92
50672;BME280;46021;55.882;37.654;2023-04-02T00:20:27;98900.28;;;4.77;85.58
50672;BME280;46021;55.882;37.654;2023-04-02T00:22:56;98907.16;;;4.78;86.49
50672;BME280;46021;55.882;37.654;2023-04-02T00:25:25;98908.84;;;4.79;85.26
50672;BME280;46021;55.882;37.654;2023-04-02T00:27:53;98904.47;;;4.83;86.15
50672;BME280;46021;55.882;37.654;2023-04-02T00:30:21;98904.47;;;4.83;86.45
50672;BME280;46021;55.882;37.654;2023-04-02T00:32:50;98908.78;;;4.82;86.82
50672;BME280;46021;55.882;37.654;2023-04-02T00:35:21;98910.50;;;4.82;87.04
50672;BME280;46021;55.882;37.654;2023-04-02T00:37:49;98913.94;;;4.82;87.46
50672;BME280;46021;55.882;37.654;2023-04-02T00:40:21;98905.31;;;4.83;88.47
50672;BME280;46021;55.882;37.654;2023-04-02T00:42:51;98914.75;;;4.86;88.61
50672;BME280;46021;55.882;37.654;2023-04-02T00:45:23;98917.31;;;4.86;88.57
50672;BME280;46021;55.882;37.654;2023-04-02T00:47:52;98914.84;;;4.80;88.70
50672;BME280;46021;55.882;37.654;2023-04-02T00:50:23;98920.81;;;4.83;88.52
50672;BME280;46021;55.882;37.654;2023-04-02T00:52:55;98915.56;;;4.88;88.09
50672;BME280;46021;55.882;37.654;2023-04-02T00:55:26;98915.56;;;4.88;88.28
50672;BME280;46021;55.882;37.654;2023-04-02T00:57:59;98919.78;;;4.92;89.01
50672;BME280;46021;55.882;37.654;2023-04-02T01:00:28;98921.41;;;4.96;89.29
50672;BME280;46021;55.882;37.654;2023-04-02T01:03:32;98929.09;;;4.99;88.98
50672;BME280;46021;55.882;37.654;2023-04-02T01:06:04;98924.78;;;4.98;89.25
50672;BME280;46021;55.882;37.654;2023-04-02T01:08:47;98912.00;;;4.94;89.77
50672;BME280;46021;55.882;37.654;2023-04-02T01:11:29;98918.69;;;5.01;89.04
50672;BME280;46021;55.882;37.654;2023-04-02T01:14:04;98921.22;;;5.04;90.11
50672;BME280;46021;55.882;37.654;2023-04-02T01:16:41;98923.84;;;5.02;89.28
50672;BME280;46021;55.882;37.654;2023-04-02T01:19:32;98919.56;;;5.01;90.00
50672;BME280;46021;55.882;37.654;2023-04-02T01:22:10;98928.06;;;5.06;90.29
50672;BME280;46021;55.882;37.654;2023-04-02T01:24:40;98922.84;;;5.10;89.66
50672;BME280;46021;55.882;37.654;2023-04-02T01:27:15;98928.00;;;5.10;89.66
50672;BME280;46021;55.882;37.654;2023-04-02T01:29:48;98922.00;;;5.09;90.05
50672;BME280;46021;55.882;37.654;2023-04-02T01:32:19;98921.16;;;5.08;89.69
50672;BME280;46021;55.882;37.654;2023-04-02T01:34:48;98933.09;;;5.13;90.63
50672;BME280;46021;55.882;37.654;2023-04-02T01:37:27;98927.13;;;5.11;90.00
50672;BME280;46021;55.882;37.654;2023-04-02T01:40:14;98919.38;;;5.11;89.67
50672;BME280;46021;55.882;37.654;2023-04-02T01:42:50;98914.22;;;5.11;90.29
50672;BME280;46021;55.882;37.654;2023-04-02T01:45:21;98916.66;;;5.17;90.35
50672;BME280;46021;55.882;37.654;2023-04-02T01:47:49;98909.75;;;5.17;90.20
50672;BME280;46021;55.882;37.654;2023-04-02T01:50:20;98915.69;;;5.21;89.71
50672;BME280;46021;55.882;37.654;2023-04-02T01:52:49;98925.06;;;5.25;90.83
50672;BME280;46021;55.882;37.654;2023-04-02T01:55:27;98913.13;;;5.21;90.29
50672;BME280;46021;55.882;37.654;2023-04-02T01:57:56;98907.91;;;5.22;90.15
50672;BME280;46021;55.882;37.654;2023-04-02T02:00:27;98912.16;;;5.25;90.95
50672;BME280;46021;55.882;37.654;2023-04-02T02:02:58;98917.25;;;5.28;91.12
50672;BME280;46021;55.882;37.654;2023-04-02T02:05:27;98917.22;;;5.30;90.46
50672;BME280;46021;55.882;37.654;2023-04-02T02:07:56;98925.00;;;5.28;90.43
50672;BME280;46021;55.882;37.654;2023-04-02T02:10:31;98911.34;;;5.23;90.62
50672;BME280;46021;55.882;37.654;2023-04-02T02:12:58;98907.84;;;5.25;90.84
50672;BME280;46021;55.882;37.654;2023-04-02T02:15:27;98919.84;;;5.28;90.50
50672;BME280;46021;55.882;37.654;2023-04-02T02:17:56;98922.34;;;5.31;90.90
50672;BME280;46021;55.882;37.654;2023-04-02T02:20:25;98924.06;;;5.32;90.56
50672;BME280;46021;55.882;37.654;2023-04-02T02:22:55;98917.16;;;5.31;90.78
50672;BME280;46021;55.882;37.654;2023-04-02T02:25:25;98925.81;;;5.32;90.91
50672;BME280;46021;55.882;37.654;2023-04-02T02:27:58;98929.22;;;5.32;90.91
50672;BME280;46021;55.882;37.654;2023-04-02T02:30:30;98925.81;;;5.30;90.23
50672;BME280;46021;55.882;37.654;2023-04-02T02:33:05;98918.88;;;5.32;91.18
50672;BME280;46021;55.882;37.654;2023-04-02T02:35:37;98919.72;;;5.33;91.21
50672;BME280;46021;55.882;37.654;2023-04-02T02:38:40;98916.41;;;5.27;90.10
50672;BME280;46021;55.882;37.654;2023-04-02T02:41:23;98931.81;;;5.32;90.93
50672;BME280;46021;55.882;37.654;2023-04-02T02:43:59;98930.97;;;5.32;91.09
50672;BME280;46021;55.882;37.654;2023-04-02T02:46:29;98932.63;;;5.34;90.72
50672;BME280;46021;55.882;37.654;2023-04-02T02:48:58;98930.03;;;5.34;90.72
50672;BME280;46021;55.882;37.654;2023-04-02T02:51:38;98924.88;;;5.34;91.00
50672;BME280;46021;55.882;37.654;2023-04-02T02:54:08;98927.41;;;5.37;91.01
50672;BME280;46021;55.882;37.654;2023-04-02T02:56:40;98926.59;;;5.34;90.54
50672;BME280;46021;55.882;37.654;2023-04-02T02:59:12;98932.63;;;5.34;90.78
50672;BME280;46021;55.882;37.654;2023-04-02T03:01:43;98928.28;;;5.35;90.42
50672;BME280;46021;55.882;37.654;2023-04-02T03:04:12;98924.00;;;5.35;90.63
50672;BME280;46021;55.882;37.654;2023-04-02T03:06:46;98924.00;;;5.35;91.22
50672;BME280;46021;55.882;37.654;2023-04-02T03:09:19;98924.88;;;5.34;91.06
50672;BME280;46021;55.882;37.654;2023-04-02T03:11:51;98927.44;;;5.34;91.12
50672;BME280;46021;55.882;37.654;2023-04-02T03:14:29;98941.34;;;5.30;90.43
50672;BME280;46021;55.882;37.654;2023-04-02T03:17:04;98942.97;;;5.34;91.13
50672;BME280;46021;55.882;37.654;2023-04-02T03:19:38;98951.53;;;5.36;91.18
50672;BME280;46021;55.882;37.654;2023-04-02T03:22:11;98947.16;;;5.38;90.70
50672;BME280;46021;55.882;37.654;2023-04-02T03:24:46;98944.59;;;5.38;91.31
50672;BME280;46021;55.882;37.654;2023-04-02T03:27:19;98957.47;;;5.40;90.63
50672;BME280;46021;55.882;37.654;2023-04-02T03:29:53;98946.34;;;5.36;90.47
50672;BME280;46021;55.882;37.654;2023-04-02T03:32:27;98951.47;;;5.39;91.18
50672;BME280;46021;55.882;37.654;2023-04-02T03:34:58;98956.53;;;5.42;91.19
50672;BME280;46021;55.882;37.654;2023-04-02T03:37:30;98949.75;;;5.38;90.92
50672;BME280;46021;55.882;37.654;2023-04-02T03:40:01;98954.81;;;5.44;90.56
50672;BME280;46021;55.882;37.654;2023-04-02T03:42:39;98952.09;;;5.49;90.77
50672;BME280;46021;55.882;37.654;2023-04-02T03:45:12;98944.47;;;5.44;90.81
50672;BME280;46021;55.882;37.654;2023-04-02T03:47:46;98947.78;;;5.50;91.26
50672;BME280;46021;55.882;37.654;2023-04-02T03:50:19;98959.75;;;5.54;90.57
50672;BME280;46021;55.882;37.654;2023-04-02T03:52:51;98965.75;;;5.56;90.36
50672;BME280;46021;55.882;37.654;2023-04-02T03:55:20;98951.88;;;5.58;91.14
50672;BME280;46021;55.882;37.654;2023-04-02T03:57:55;98958.66;;;5.64;91.23
50672;BME280;46021;55.882;37.654;2023-04-02T04:00:32;98959.50;;;5.64;90.42
50672;BME280;46021;55.882;37.654;2023-04-02T04:03:08;98962.94;;;5.65;90.28
50672;BME280;46021;55.882;37.654;2023-04-02T04:05:43;98963.81;;;5.64;89.93
50672;BME280;46021;55.882;37.654;2023-04-02T04:08:16;98963.78;;;5.65;89.86
50672;BME280;46021;55.882;37.654;2023-04-02T04:10:43;98970.75;;;5.63;90.25
50672;BME280;46021;55.882;37.654;2023-04-02T04:13:14;98963.84;;;5.62;90.09
50672;BME280;46021;55.882;37.654;2023-04-02T04:15:49;98967.28;;;5.63;90.39
50672;BME280;46021;55.882;37.654;2023-04-02T04:18:25;98964.69;;;5.63;89.91
50672;BME280;46021;55.882;37.654;2023-04-02T04:21:00;98963.75;;;5.67;90.26
50672;BME280;46021;55.882;37.654;2023-04-02T04:23:38;98954.22;;;5.69;90.54
50672;BME280;46021;55.882;37.654;2023-04-02T04:26:18;98955.03;;;5.71;89.57
50672;BME280;46021;55.882;37.654;2023-04-02T04:28:58;98961.81;;;5.77;89.94
50672;BME280;46021;55.882;37.654;2023-04-02T04:31:34;98959.09;;;5.81;90.00
50672;BME280;46021;55.882;37.654;2023-04-02T04:34:10;98959.91;;;5.83;89.98
50672;BME280;46021;55.882;37.654;2023-04-02T04:36:43;98956.41;;;5.86;89.38
50672;BME280;46021;55.882;37.654;2023-04-02T04:39:23;98959.94;;;5.82;88.91
50672;BME280;46021;55.882;37.654;2023-04-02T04:41:56;98974.59;;;5.83;88.74
50672;BME280;46021;55.882;37.654;2023-04-02T04:44:36;98978.16;;;5.77;88.91
50672;BME280;46021;55.882;37.654;2023-04-02T04:47:08;98973.78;;;5.81;88.61
50672;BME280;46021;55.882;37.654;2023-04-02T04:49:42;98988.34;;;5.83;89.12
50672;BME280;46021;55.882;37.654;2023-04-02T04:52:16;98992.66;;;5.84;88.62
50672;BME280;46021;55.882;37.654;2023-04-02T04:54:45;98993.47;;;5.86;88.38
50672;BME280;46021;55.882;37.654;2023-04-02T04:57:24;98996.13;;;5.83;88.32
50672;BME280;46021;55.882;37.654;2023-04-02T04:59:58;98995.16;;;5.88;88.78
50672;BME280;46021;55.882;37.654;2023-04-02T05:02:33;98988.19;;;5.90;89.29
50672;BME280;46021;55.882;37.654;2023-04-02T05:05:13;98991.75;;;5.85;88.00
50672;BME280;46021;55.882;37.654;2023-04-02T05:07:44;98993.31;;;5.93;88.56
50672;BME280;46021;55.882;37.654;2023-04-02T05:10:19;98987.31;;;5.92;87.86
50672;BME280;46021;55.882;37.654;2023-04-02T05:12:52;98995.09;;;5.91;87.54
50672;BME280;46021;55.882;37.654;2023-04-02T05:15:25;99003.72;;;5.90;87.32
50672;BME280;46021;55.882;37.654;2023-04-02T05:18:10;98993.56;;;5.82;85.67
50672;BME280;46021;55.882;37.654;2023-04-02T05:20:45;98997.84;;;5.83;86.45
50672;BME280;46021;55.882;37.654;2023-04-02T05:23:18;98984.97;;;5.81;86.70
50672;BME280;46021;55.882;37.654;2023-04-02T05:25:52;98984.09;;;5.82;86.74
50672;BME280;46021;55.882;37.654;2023-04-02T05:28:28;98988.13;;;5.93;87.51
50672;BME280;46021;55.882;37.654;2023-04-02T05:31:01;99001.06;;;5.93;86.42
50672;BME280;46021;55.882;37.654;2023-04-02T05:33:33;98998.38;;;5.99;86.68
50672;BME280;46021;55.882;37.654;2023-04-02T05:36:08;98994.97;;;5.97;86.36
50672;BME280;46021;55.882;37.654;2023-04-02T05:38:43;98993.16;;;6.00;86.75
50672;BME280;46021;55.882;37.654;2023-04-02T05:41:21;99007.97;;;5.94;85.69
50672;BME280;46021;55.882;37.654;2023-04-02T05:43:59;99010.53;;;5.95;86.44
50672;BME280;46021;55.882;37.654;2023-04-02T05:46:33;99005.25;;;6.00;86.96
50672;BME280;46021;55.882;37.654;2023-04-02T05:49:07;99009.47;;;6.04;86.66
50672;BME280;46021;55.882;37.654;2023-04-02T05:51:42;99015.38;;;6.09;86.37
50672;BME280;46021;55.882;37.654;2023-04-02T05:54:18;99013.63;;;6.10;86.24
50672;BME280;46021;55.882;37.654;2023-04-02T05:56:53;99017.84;;;6.14;86.28
50672;BME280;46021;55.882;37.654;2023-04-02T05:59:24;99012.03;;;6.04;85.35
50672;BME280;46021;55.882;37.654;2023-04-02T06:01:59;99011.13;;;6.07;86.12
50672;BME280;46021;55.882;37.654;2023-04-02T06:04:35;99007.50;;;6.14;86.36
50672;BME280;46021;55.882;37.654;2023-04-02T06:07:14;99006.81;;;6.07;85.27
50672;BME280;46021;55.882;37.654;2023-04-02T06:09:52;99014.44;;;6.12;85.07
50672;BME280;46021;55.882;37.654;2023-04-02T06:12:26;99020.47;;;6.12;85.38
50672;BME280;46021;55.882;37.654;2023-04-02T06:14:56;99008.47;;;6.10;85.55
50672;BME280;46021;55.882;37.654;2023-04-02T06:17:28;99019.59;;;6.13;85.33
50672;BME280;46021;55.882;37.654;2023-04-02T06:19:58;99021.19;;;6.19;85.46
50672;BME280;46021;55.882;37.654;2023-04-02T06:22:35;99021.28;;;6.14;85.28
50672;BME280;46021;55.882;37.654;2023-04-02T06:25:09;99026.97;;;6.29;86.02
50672;BME280;46021;55.882;37.654;2023-04-02T06:27:42;99025.97;;;6.34;85.64
50672;BME280;46021;55.882;37.654;2023-04-02T06:30:16;99025.13;;;6.34;85.35
50672;BME280;46021;55.882;37.654;2023-04-02T06:32:48;99026.75;;;6.38;86.04
50672;BME280;46021;55.882;37.654;2023-04-02T06:35:16;99021.59;;;6.36;84.93
50672;BME280;46021;55.882;37.654;2023-04-02T06:37:53;99016.31;;;6.41;85.63
50672;BME280;46021;55.882;37.654;2023-04-02T06:40:38;99016.44;;;6.35;83.91
50672;BME280;46021;55.882;37.654;2023-04-02T06:43:33;99018.72;;;6.49;85.61
50672;BME280;46021;55.882;37.654;2023-04-02T06:46:18;99005.88;;;6.44;84.52
50672;BME280;46021;55.882;37.654;2023-04-02T06:49:06;99008.50;;;6.42;84.24
50672;BME280;46021;55.882;37.654;2023-04-02T06:51:40;99017.84;;;6.48;84.40
50672;BME280;46021;55.882;37.654;2023-04-02T06:54:13;99016.97;;;6.49;84.73
50672;BME280;46021;55.882;37.654;2023-04-02T06:56:44;99026.41;;;6.50;84.70
50672;BME280;46021;55.882;37.654;2023-04-02T06:59:17;99023.00;;;6.48;84.11
50672;BME280;46021;55.882;37.654;2023-04-02T07:01:47;99025.53;;;6.51;84.98
50672;BME280;46021;55.882;37.654;2023-04-02T07:04:18;99031.47;;;6.56;84.93
50672;BME280;46021;55.882;37.654;2023-04-02T07:06:49;99034.84;;;6.58;84.50
50672;BME280;46021;55.882;37.654;2023-04-02T07:09:17;99030.41;;;6.63;84.09
50672;BME280;46021;55.882;37.654;2023-04-02T07:11:48;99038.84;;;6.70;84.86
50672;BME280;46021;55.882;37.654;2023-04-02T07:14:17;99041.44;;;6.70;84.23
50672;BME280;46021;55.882;37.654;2023-04-02T07:16:45;99039.88;;;6.64;83.95
50672;BME280;46021;55.882;37.654;2023-04-02T07:19:17;99037.44;;;6.58;83.70
50672;BME280;46021;55.882;37.654;2023-04-02T07:21:46;99034.84;;;6.58;83.79
50672;BME280;46021;55.882;37.654;2023-04-02T07:24:13;99035.72;;;6.57;83.42
50672;BME280;46021;55.882;37.654;2023-04-02T07:26:42;99031.53;;;6.53;83.71
50672;BME280;46021;55.882;37.654;2023-04-02T07:29:14;99023.81;;;6.50;83.44
50672;BME280;46021;55.882;37.654;2023-04-02T07:31:42;99039.94;;;6.61;83.97
50672;BME280;46021;55.882;37.654;2023-04-02T07:34:09;99043.38;;;6.63;83.68
50672;BME280;46021;55.882;37.654;2023-04-02T07:36:37;99050.06;;;6.71;83.23
50672;BME280;46021;55.882;37.654;2023-04-02T07:39:05;99052.78;;;6.66;82.43
50672;BME280;46021;55.882;37.654;2023-04-02T07:41:32;99040.19;;;6.52;78.47
50672;BME280;46021;55.882;37.654;2023-04-02T07:44:00;99045.22;;;6.58;81.74
50672;BME280;46021;55.882;37.654;2023-04-02T07:46:27;99035.72;;;6.57;82.53
50672;BME280;46021;55.882;37.654;2023-04-02T07:48:54;99036.31;;;6.69;82.99
50672;BME280;46021;55.882;37.654;2023-04-02T07:51:23;99049.28;;;6.67;81.39
50672;BME280;46021;55.882;37.654;2023-04-02T07:53:50;99055.31;;;6.69;81.68
50672;BME280;46021;55.882;37.654;2023-04-02T07:56:22;99057.03;;;6.69;81.56
50672;BME280;46021;55.882;37.654;2023-04-02T08:01:21;99058.34;;;6.51;79.18
50672;BME280;46021;55.882;37.654;2023-04-02T08:03:50;99054.78;;;6.55;80.22
50672;BME280;46021;55.882;37.654;2023-04-02T08:06:17;99059.91;;;6.58;78.95
50672;BME280;46021;55.882;37.654;2023-04-02T08:08:45;99061.50;;;6.63;80.81
50672;BME280;46021;55.882;37.654;2023-04-02T08:11:12;99052.88;;;6.61;80.01
50672;BME280;46021;55.882;37.654;2023-04-02T08:13:39;99064.06;;;6.63;80.10
50672;BME280;46021;55.882;37.654;2023-04-02T08:16:07;99068.97;;;6.74;80.87
50672;BME280;46021;55.882;37.654;2023-04-02T08:18:36;99061.91;;;6.81;80.75
50672;BME280;46021;55.882;37.654;2023-04-02T08:21:06;99066.03;;;6.88;80.88
50672;BME280;46021;55.882;37.654;2023-04-02T08:23:34;99063.25;;;6.94;81.79
50672;BME280;46021;55.882;37.654;2023-04-02T08:26:01;99065.13;;;6.89;77.31
50672;BME280;46021;55.882;37.654;2023-04-02T08:28:29;99066.66;;;6.96;79.87
50672;BME280;46021;55.882;37.654;2023-04-02T08:30:56;99064.88;;;6.98;79.86
50672;BME280;46021;55.882;37.654;2023-04-02T08:33:23;99064.88;;;6.98;78.93
50672;BME280;46021;55.882;37.654;2023-04-02T08:35:52;99065.69;;;7.00;79.46
50672;BME280;46021;55.882;37.654;2023-04-02T08:38:20;99064.28;;;6.89;77.43
50672;BME280;46021;55.882;37.654;2023-04-02T08:40:50;99070.22;;;6.92;77.50
50672;BME280;46021;55.882;37.654;2023-04-02T08:43:34;99075.47;;;6.89;77.13
50672;BME280;46021;55.882;37.654;2023-04-02T08:46:08;99078.88;;;6.91;77.61
50672;BME280;46021;55.882;37.654;2023-04-02T08:48:39;99073.94;;;6.82;77.25
50672;BME280;46021;55.882;37.654;2023-04-02T08:51:20;99072.88;;;6.89;77.31
50672;BME280;46021;55.882;37.654;2023-04-02T08:53:47;99074.25;;;7.02;78.02
50672;BME280;46021;55.882;37.654;2023-04-02T08:56:17;99071.50;;;7.09;77.70
50672;BME280;46021;55.882;37.654;2023-04-02T08:58:49;99065.72;;;6.99;76.84
50672;BME280;46021;55.882;37.654;2023-04-02T09:01:25;99060.50;;;7.00;76.62
50672;BME280;46021;55.882;37.654;2023-04-02T09:03:57;99068.97;;;7.07;76.50
50672;BME280;46021;55.882;37.654;2023-04-02T09:06:26;99060.88;;;7.18;77.06
50672;BME280;46021;55.882;37.654;2023-04-02T09:08:54;99060.06;;;7.16;76.56
50672;BME280;46021;55.882;37.654;2023-04-02T09:11:24;99075.34;;;7.27;77.23
50672;BME280;46021;55.882;37.654;2023-04-02T09:13:55;99059.88;;;7.22;76.68
50672;BME280;46021;55.882;37.654;2023-04-02T09:16:34;99071.09;;;7.24;75.23
50672;BME280;46021;55.882;37.654;2023-04-02T09:19:13;99062.69;;;7.14;75.31
50672;BME280;46021;55.882;37.654;2023-04-02T09:21:45;99065.34;;;7.13;75.38
50672;BME280;46021;55.882;37.654;2023-04-02T09:24:13;99066.22;;;7.12;75.38
50672;BME280;46021;55.882;37.654;2023-04-02T09:26:41;99067.16;;;7.11;75.33
50672;BME280;46021;55.882;37.654;2023-04-02T09:29:25;99060.44;;;7.03;73.69
50672;BME280;46021;55.882;37.654;2023-04-02T09:31:58;99064.25;;;6.90;73.05
50672;BME280;46021;55.882;37.654;2023-04-02T09:34:33;99052.91;;;6.94;74.41
50672;BME280;46021;55.882;37.654;2023-04-02T09:37:08;99070.19;;;6.94;74.26
50672;BME280;46021;55.882;37.654;2023-04-02T09:39:39;99063.16;;;6.97;75.40
50672;BME280;46021;55.882;37.654;2023-04-02T09:42:07;99069.03;;;7.04;75.39
50672;BME280;46021;55.882;37.654;2023-04-02T09:45:11;99070.91;;;6.99;74.29
50672;BME280;46021;55.882;37.654;2023-04-02T09:47:38;99070.03;;;7.00;74.31
50672;BME280;46021;55.882;37.654;2023-04-02T09:50:14;99089.81;;;7.02;74.45
50672;BME280;46021;55.882;37.654;2023-04-02T09:52:50;99087.94;;;7.08;74.50
50672;BME280;46021;55.882;37.654;2023-04-02T09:55:20;99073.44;;;7.00;74.05
50672;BME280;46021;55.882;37.654;2023-04-02T09:57:49;99078.38;;;7.10;75.11
50672;BME280;46021;55.882;37.654;2023-04-02T10:00:20;99086.09;;;7.13;74.50
50672;BME280;46021;55.882;37.654;2023-04-02T10:03:00;99072.38;;;7.09;74.08
50672;BME280;46021;55.882;37.654;2023-04-02T10:05:29;99073.03;;;7.16;74.13
50672;BME280;46021;55.882;37.654;2023-04-02T10:08:07;99072.41;;;7.08;73.61
50672;BME280;46021;55.882;37.654;2023-04-02T10:10:38;99068.69;;;7.16;74.04
50672;BME280;46021;55.882;37.654;2023-04-02T10:13:15;99079.66;;;7.26;73.90
50672;BME280;46021;55.882;37.654;2023-04-02T10:15:47;99075.91;;;7.36;74.32
50672;BME280;46021;55.882;37.654;2023-04-02T10:18:21;99083.63;;;7.39;73.26
50672;BME280;46021;55.882;37.654;2023-04-02T10:20:52;99093.72;;;7.49;73.08
50672;BME280;46021;55.882;37.654;2023-04-02T10:23:23;99083.69;;;7.36;73.18
50672;BME280;46021;55.882;37.654;2023-04-02T10:25:58;99093.22;;;7.36;72.95
50672;BME280;46021;55.882;37.654;2023-04-02T10:28:41;99093.19;;;7.37;72.91
50672;BME280;46021;55.882;37.654;2023-04-02T10:31:14;99093.28;;;7.33;73.05
50672;BME280;46021;55.882;37.654;2023-04-02T10:33:47;99089.09;;;7.29;72.53
50672;BME280;46021;55.882;37.654;2023-04-02T10:36:23;99091.06;;;7.20;72.30
50672;BME280;46021;55.882;37.654;2023-04-02T10:39:01;99099.50;;;7.27;73.06
50672;BME280;46021;55.882;37.654;2023-04-02T10:41:32;99093.25;;;7.34;73.18
50672;BME280;46021;55.882;37.654;2023-04-02T10:44:28;99088.16;;;7.31;72.75
50672;BME280;46021;55.882;37.654;2023-04-02T10:47:09;99096.47;;;7.42;72.70
50672;BME280;46021;55.882;37.654;2023-04-02T10:49:53;99073.88;;;7.48;72.70
50672;BME280;46021;55.882;37.654;2023-04-02T10:52:28;99081.56;;;7.51;71.80
50672;BME280;46021;55.882;37.654;2023-04-02T10:55:00;99083.50;;;7.72;72.99
50672;BME280;46021;55.882;37.654;2023-04-02T10:57:33;99083.84;;;7.90;72.15
50672;BME280;46021;55.882;37.654;2023-04-02T11:00:13;99071.81;;;8.15;71.42
50672;BME280;46021;55.882;37.654;2023-04-02T11:02:47;99071.56;;;8.51;71.74
50672;BME280;46021;55.882;37.654;2023-04-02T11:05:21;99066.56;;;8.95;71.97
50672;BME280;46021;55.882;37.654;2023-04-02T11:07:59;99059.22;;;9.32;70.90
50672;BME280;46021;55.882;37.654;2023-04-02T11:10:31;99068.94;;;9.74;70.40
50672;BME280;46021;55.882;37.654;2023-04-02T11:13:04;99060.75;;;10.05;68.76
50672;BME280;46021;55.882;37.654;2023-04-02T11:15:35;99056.53;;;10.25;68.02
50672;BME280;46021;55.882;37.654;2023-04-02T11:18:03;99064.09;;;10.53;66.94
50672;BME280;46021;55.882;37.654;2023-04-02T11:20:55;99069.94;;;10.79;65.17
50672;BME280;46021;55.882;37.654;2023-04-02T11:23:27;99056.78;;;11.02;65.94
50672;BME280;46021;55.882;37.654;2023-04-02T11:26:37;99065.13;;;11.29;64.40
50672;BME280;46021;55.882;37.654;2023-04-02T11:29:08;99048.00;;;11.43;62.78
50672;BME280;46021;55.882;37.654;2023-04-02T11:31:39;99058.72;;;11.37;63.57
50672;BME280;46021;55.882;37.654;2023-04-02T11:34:11;99052.50;;;11.39;63.10
50672;BME280;46021;55.882;37.654;2023-04-02T11:37:01;99039.75;;;11.52;60.96
50672;BME280;46021;55.882;37.654;2023-04-02T11:39:49;99047.34;;;11.76;59.88
50672;BME280;46021;55.882;37.654;2023-04-02T11:42:31;99055.34;;;12.28;59.49
50672;BME280;46021;55.882;37.654;2023-04-02T11:45:47;99053.00;;;13.09;59.73
50672;BME280;46021;55.882;37.654;2023-04-02T11:50:51;99057.91;;;12.64;56.23
50672;BME280;46021;55.882;37.654;2023-04-02T11:53:21;99075.28;;;12.31;57.08
50672;BME280;46021;55.882;37.654;2023-04-02T11:56:07;99062.59;;;11.85;57.08
50672;BME280;46021;55.882;37.654;2023-04-02T11:58:45;99068.25;;;11.76;58.28
50672;BME280;46021;55.882;37.654;2023-04-02T12:01:37;99062.19;;;11.56;58.54
50672;BME280;46021;55.882;37.654;2023-04-02T12:04:33;99076.41;;;11.30;58.86
50672;BME280;46021;55.882;37.654;2023-04-02T12:07:30;99071.72;;;10.78;59.24
50672;BME280;46021;55.882;37.654;2023-04-02T12:10:02;99073.63;;;10.52;59.92
50672;BME280;46021;55.882;37.654;2023-04-02T12:12:33;99059.50;;;10.15;60.70
50672;BME280;46021;55.882;37.654;2023-04-02T12:15:05;99065.78;;;9.88;61.18
50672;BME280;46021;55.882;37.654;2023-04-02T12:17:36;99063.09;;;9.67;61.99
50672;BME280;46021;55.882;37.654;2023-04-02T12:20:17;99075.66;;;9.56;62.44
50672;BME280;46021;55.882;37.654;2023-04-02T12:22:48;99063.19;;;9.42;62.66
50672;BME280;46021;55.882;37.654;2023-04-02T12:25:24;99077.31;;;9.35;62.77
50672;BME280;46021;55.882;37.654;2023-04-02T12:28:13;99085.75;;;9.16;63.26
50672;BME280;46021;55.882;37.654;2023-04-02T12:30:46;99083.25;;;9.15;63.58
50672;BME280;46021;55.882;37.654;2023-04-02T12:33:26;99079.91;;;9.11;63.95
50672;BME280;46021;55.882;37.654;2023-04-02T12:35:57;99086.03;;;9.09;63.74
50672;BME280;46021;55.882;37.654;2023-04-02T12:38:26;99082.41;;;9.13;64.72
50672;BME280;46021;55.882;37.654;2023-04-02T12:40:55;99070.13;;;9.18;64.17
50672;BME280;46021;55.882;37.654;2023-04-02T12:43:24;99079.13;;;9.33;64.00
50672;BME280;46021;55.882;37.654;2023-04-02T12:45:54;99084.22;;;9.36;64.15
50672;BME280;46021;55.882;37.654;2023-04-02T12:48:22;99076.78;;;9.49;64.40
50672;BME280;46021;55.882;37.654;2023-04-02T12:50:51;99080.66;;;9.62;63.89
50672;BME280;46021;55.882;37.654;2023-04-02T12:53:20;99076.88;;;9.47;63.55
50672;BME280;46021;55.882;37.654;2023-04-02T12:55:50;99068.19;;;9.47;64.09
50672;BME280;46021;55.882;37.654;2023-04-02T12:58:25;99076.13;;;9.44;64.10
50672;BME280;46021;55.882;37.654;2023-04-02T13:04:00;99076.38;;;9.38;64.48
50672;BME280;46021;55.882;37.654;2023-04-02T13:06:28;99075.22;;;9.21;64.28
50672;BME280;46021;55.882;37.654;2023-04-02T13:08:56;99074.53;;;9.16;64.11
50672;BME280;46021;55.882;37.654;2023-04-02T13:11:32;99080.66;;;9.15;64.30
50672;BME280;46021;55.882;37.654;2023-04-02T13:14:00;99081.72;;;9.09;64.77
50672;BME280;46021;55.882;37.654;2023-04-02T13:16:33;99077.84;;;8.96;64.95
50672;BME280;46021;55.882;37.654;2023-04-02T13:19:27;99085.38;;;9.04;65.49
50672;BME280;46021;55.882;37.654;2023-04-02T13:21:56;99083.88;;;8.96;65.59
50672;BME280;46021;55.882;37.654;2023-04-02T13:24:25;99094.38;;;8.93;64.96
50672;BME280;46021;55.882;37.654;2023-04-02T13:26:54;99092.69;;;8.92;65.40
50672;BME280;46021;55.882;37.654;2023-04-02T13:29:27;99090.19;;;8.89;65.61
50672;BME280;46021;55.882;37.654;2023-04-02T13:31:56;99086.91;;;8.84;65.57
50672;BME280;46021;55.882;37.654;2023-04-02T13:34:23;99093.84;;;8.84;66.10
50672;BME280;46021;55.882;37.654;2023-04-02T13:36:52;99086.28;;;8.77;65.50
50672;BME280;46021;55.882;37.654;2023-04-02T13:39:19;99087.03;;;8.81;65.86
50672;BME280;46021;55.882;37.654;2023-04-02T13:41:49;99083.50;;;8.82;66.04
50672;BME280;46021;55.882;37.654;2023-04-02T13:44:20;99087.50;;;8.92;66.43
50672;BME280;46021;55.882;37.654;2023-04-02T13:46:47;99095.06;;;8.98;65.88